Time;durP1;ratioP1;P1;durP2;ratioP2;P2;SDS_P1;SDS_P2;PMS_P1;PMS_P2;Temp;Humidity;BMP_temperature;BMP_pressure;BME280_temperature;BME280_humidity;BME280_pressure;Samples;Min_cycle;Max_cycle;Signal;HPM_P1;HPM_P2
2022/06/12 00:01:10;;;;;;;;;3.75;1.50;;;;;22.32;53.96;102084.41;5097693;27;45458;-75
2022/06/12 00:03:37;;;;;;;;;1.00;1.00;;;;;22.26;54.13;102079.91;5097624;27;45750;-80
2022/06/12 00:06:03;;;;;;;;;2.00;2.00;;;;;22.26;53.86;102081.63;5097712;27;45267;-76
2022/06/12 00:08:32;;;;;;;;;0.25;0.25;;;;;22.22;54.55;102087.75;5098305;27;45504;-77
2022/06/12 00:10:59;;;;;;;;;4.50;1.25;;;;;22.10;54.61;102068.22;5097808;27;46065;-77
2022/06/12 00:13:33;;;;;;;;;2.00;1.00;;;;;22.16;54.77;102087.63;5098006;27;45705;-80
2022/06/12 00:16:00;;;;;;;;;3.00;1.75;;;;;22.05;55.09;102076.91;5098095;27;45424;-76
2022/06/12 00:18:26;;;;;;;;;0.25;0.25;;;;;21.95;55.52;102078.47;5103258;27;45417;-77
2022/06/12 00:21:10;;;;;;;;;2.25;1.00;;;;;21.94;55.89;102081.97;5084076;27;47972;-77
2022/06/12 00:24:04;;;;;;;;;1.00;1.00;;;;;21.89;56.19;102083.66;5085677;27;45644;-75
2022/06/12 00:26:36;;;;;;;;;1.00;1.00;;;;;21.80;56.77;102073.81;5099461;27;45342;-74
2022/06/12 00:29:10;;;;;;;;;2.25;1.00;;;;;21.80;56.84;102076.47;5079571;27;45585;-75
2022/06/12 00:31:38;;;;;;;;;1.50;1.00;;;;;21.84;56.87;102086.22;5097819;27;46384;-76
2022/06/12 00:34:05;;;;;;;;;1.50;1.00;;;;;21.86;57.18;102094.13;5097211;27;45334;-76
2022/06/12 00:36:31;;;;;;;;;4.25;3.00;;;;;21.80;58.13;102084.38;5097596;27;45519;-77
2022/06/12 00:38:57;;;;;;;;;7.25;4.75;;;;;21.74;58.95;102090.41;5098065;27;45329;-76
2022/06/12 00:41:22;;;;;;;;;2.50;2.50;;;;;21.68;59.32;102081.50;5078555;27;47033;-78
2022/06/12 00:43:48;;;;;;;;;5.00;4.50;;;;;21.68;59.34;102089.41;5097414;27;45312;-74
2022/06/12 00:46:55;;;;;;;;;4.25;4.25;;;;;21.64;59.72;102099.00;5080672;27;45484;-77
2022/06/12 00:49:24;;;;;;;;;2.75;2.75;;;;;21.57;59.62;102105.00;4997959;28;45579;-81
2022/06/12 00:51:56;;;;;;;;;6.25;3.25;;;;;21.54;60.04;102097.00;4994601;28;45572;-80
2022/06/12 00:54:24;;;;;;;;;3.75;3.00;;;;;21.52;60.20;102086.44;5050520;27;45387;-77
2022/06/12 00:56:53;;;;;;;;;4.75;3.00;;;;;21.53;59.75;102092.59;5097931;27;45310;-77
2022/06/12 00:59:32;;;;;;;;;3.50;2.00;;;;;21.44;60.54;102094.19;5098894;27;45228;-77
2022/06/12 01:01:59;;;;;;;;;2.00;2.00;;;;;21.39;60.94;102087.06;5097424;27;45460;-75
2022/06/12 01:07:14;;;;;;;;;2.00;2.00;;;;;21.31;60.95;102085.16;5098240;27;45365;-77
2022/06/12 01:09:43;;;;;;;;;2.75;2.00;;;;;21.30;61.58;102082.47;5101726;27;45366;-74
2022/06/12 01:12:14;;;;;;;;;1.75;1.75;;;;;21.26;61.75;102096.47;5100190;27;45408;-75
2022/06/12 01:15:09;;;;;;;;;2.50;1.50;;;;;21.16;62.51;102091.00;5098651;27;45757;-76
2022/06/12 01:17:35;;;;;;;;;1.50;1.25;;;;;21.17;62.57;102095.38;5060284;27;45392;-74
2022/06/12 01:20:08;;;;;;;;;1.75;1.75;;;;;21.11;63.32;102090.00;5096944;27;45472;-74
2022/06/12 01:23:11;;;;;;;;;3.50;2.00;;;;;21.07;64.04;102096.03;5078318;27;46190;-75
2022/06/12 01:26:00;;;;;;;;;2.00;1.00;;;;;21.03;64.29;102096.84;5078337;27;45810;-76
2022/06/12 01:28:45;;;;;;;;;3.50;2.25;;;;;20.96;64.18;102098.44;5096880;27;45312;-75
2022/06/12 01:31:40;;;;;;;;;3.00;3.00;;;;;20.73;64.59;102069.84;5096599;27;45310;-75
2022/06/12 01:34:19;;;;;;;;;2.25;2.00;;;;;20.85;64.90;102092.94;5074210;27;45456;-74
2022/06/12 01:37:10;;;;;;;;;2.00;2.00;;;;;20.83;64.89;102105.19;5096332;27;45660;-75
2022/06/12 01:39:46;;;;;;;;;1.75;1.00;;;;;20.80;65.17;102094.59;5099795;27;45290;-76
2022/06/12 01:42:24;;;;;;;;;2.00;1.00;;;;;20.70;65.62;102085.53;5100340;27;45433;-76
2022/06/12 01:44:58;;;;;;;;;3.00;2.50;;;;;20.71;65.57;102095.22;5099999;27;46157;-79
2022/06/12 01:47:35;;;;;;;;;2.25;1.25;;;;;20.62;65.09;102091.50;5100186;27;45420;-75
2022/06/12 01:50:42;;;;;;;;;3.00;3.00;;;;;20.50;65.97;102092.06;5099839;27;45372;-75
2022/06/12 01:53:17;;;;;;;;;1.75;1.75;;;;;20.47;65.64;102107.78;5051190;27;45510;-75
2022/06/12 01:55:48;;;;;;;;;2.00;1.25;;;;;20.46;65.72;102109.53;5107040;27;46571;-80
2022/06/12 01:58:56;;;;;;;;;1.75;1.75;;;;;20.46;65.50;102117.44;5103986;27;45265;-75
2022/06/12 02:01:21;;;;;;;;;1.25;1.00;;;;;20.40;65.95;102109.41;5088733;27;45303;-75
2022/06/12 02:04:36;;;;;;;;;1.25;1.25;;;;;20.37;65.97;102107.56;5101537;27;45458;-76
2022/06/12 02:07:10;;;;;;;;;2.25;2.00;;;;;20.36;65.86;102108.41;4997024;28;46183;-76
2022/06/12 02:09:41;;;;;;;;;3.50;1.25;;;;;20.27;66.83;102108.16;5093869;27;45408;-74
2022/06/12 02:15:35;;;;;;;;;3.25;1.25;;;;;20.22;66.59;102122.97;5099393;27;45321;-77
2022/06/12 02:18:32;;;;;;;;;3.00;1.00;;;;;20.12;66.91;102113.94;5012710;27;45974;-76
2022/06/12 02:21:41;;;;;;;;;2.50;2.00;;;;;20.12;67.19;102105.16;5099687;27;45740;-76
2022/06/12 02:24:19;;;;;;;;;1.00;1.00;;;;;20.07;68.00;102108.56;5099153;27;45395;-76
2022/06/12 02:27:00;;;;;;;;;1.00;1.00;;;;;19.98;67.97;102099.56;5099710;27;45359;-76
2022/06/12 02:29:41;;;;;;;;;3.25;2.00;;;;;20.05;68.71;102112.00;5081001;27;45555;-77
2022/06/12 02:32:18;;;;;;;;;2.00;1.00;;;;;20.01;68.59;102113.66;5098936;27;45372;-76
2022/06/12 02:34:50;;;;;;;;;1.50;1.50;;;;;20.03;68.66;102106.69;5099318;27;45393;-75
2022/06/12 02:37:35;;;;;;;;;4.50;1.50;;;;;20.02;68.11;102104.94;5080911;27;45365;-77
2022/06/12 02:40:08;;;;;;;;;2.00;2.00;;;;;19.98;68.35;102102.19;5100936;27;45466;-75
2022/06/12 02:42:40;;;;;;;;;2.00;2.00;;;;;19.94;68.70;102103.81;5105851;27;45312;-77
2022/06/12 02:45:10;;;;;;;;;3.00;1.50;;;;;19.92;68.66;102103.78;5106583;27;45368;-77
2022/06/12 02:47:39;;;;;;;;;2.00;2.00;;;;;19.83;69.20;102107.84;5101350;27;45349;-75
2022/06/12 02:50:07;;;;;;;;;1.75;1.00;;;;;19.85;69.78;102109.69;5100454;27;46103;-77
2022/06/12 02:52:42;;;;;;;;;3.00;1.00;;;;;19.85;69.70;102111.41;5099382;27;45482;-78
2022/06/12 02:55:29;;;;;;;;;1.75;1.75;;;;;19.83;69.74;102113.09;5099274;27;45189;-80
2022/06/12 02:57:59;;;;;;;;;3.25;2.00;;;;;19.78;69.67;102103.38;5081266;27;45427;-81
2022/06/12 03:00:37;;;;;;;;;2.00;2.00;;;;;19.77;69.94;102113.81;5080996;27;45297;-81
2022/06/12 03:03:11;;;;;;;;;0.00;0.00;;;;;19.74;70.29;102109.38;5098618;27;45456;-75
2022/06/12 03:05:39;;;;;;;;;2.50;2.00;;;;;19.71;69.77;102118.94;5098957;27;45527;-76
2022/06/12 03:08:15;;;;;;;;;1.50;1.50;;;;;19.67;70.81;102115.31;5080493;27;45434;-76
2022/06/12 03:10:49;;;;;;;;;2.00;2.00;;;;;19.63;70.92;102110.81;5100103;27;45890;-75
2022/06/12 03:13:17;;;;;;;;;2.75;2.75;;;;;19.59;71.41;102112.47;5101994;27;45785;-76
2022/06/12 03:15:54;;;;;;;;;3.75;2.50;;;;;19.53;70.73;102119.28;5099892;27;45359;-76
2022/06/12 03:18:34;;;;;;;;;2.00;2.00;;;;;19.45;71.65;102112.09;5098828;27;45246;-76
2022/06/12 03:21:18;;;;;;;;;3.75;1.75;;;;;19.37;71.83;102105.72;5098233;27;46598;-78
2022/06/12 03:24:00;;;;;;;;;3.25;2.00;;;;;19.36;71.76;102118.78;5098407;27;45362;-76
2022/06/12 03:27:03;;;;;;;;;5.00;3.00;;;;;19.35;72.70;102120.53;5098480;27;45373;-77
2022/06/12 03:29:47;;;;;;;;;3.00;1.50;;;;;19.30;72.50;102112.53;5099411;27;45552;-75
2022/06/12 03:32:18;;;;;;;;;2.75;2.00;;;;;19.23;74.41;102110.56;5100791;27;45434;-77
2022/06/12 03:35:02;;;;;;;;;2.00;1.00;;;;;19.20;73.41;102109.56;5100301;27;45854;-77
2022/06/12 03:38:02;;;;;;;;;4.00;3.00;;;;;19.13;73.71;102108.50;5098733;27;45348;-76
2022/06/12 03:40:53;;;;;;;;;2.50;1.25;;;;;19.15;73.63;102117.31;5094586;27;45425;-77
2022/06/12 03:43:37;;;;;;;;;4.00;2.00;;;;;19.18;74.49;102114.78;5097839;27;45468;-76
2022/06/12 03:46:27;;;;;;;;;3.00;3.00;;;;;19.13;74.25;102109.41;5098138;27;45642;-76
2022/06/12 03:48:52;;;;;;;;;2.75;2.75;;;;;19.13;74.40;102112.03;5098525;27;45503;-75
2022/06/12 03:51:31;;;;;;;;;3.25;2.75;;;;;19.08;74.62;102112.72;5098675;27;45390;-75
2022/06/12 03:54:10;;;;;;;;;2.00;2.00;;;;;19.06;74.78;102114.41;5098208;27;45287;-74
2022/06/12 03:59:42;;;;;;;;;1.25;1.00;;;;;18.94;74.90;102113.19;5097801;27;45286;-75
2022/06/12 04:02:14;;;;;;;;;3.00;2.00;;;;;18.92;75.38;102108.72;5078484;27;45532;-74
2022/06/12 04:04:43;;;;;;;;;3.50;3.50;;;;;18.94;75.13;102107.94;5100669;27;46025;-75
2022/06/12 04:07:13;;;;;;;;;1.25;1.00;;;;;18.95;75.28;102104.47;5099244;27;46260;-74
2022/06/12 04:09:43;;;;;;;;;5.25;3.00;;;;;18.96;75.25;102097.47;5098416;27;45407;-76
2022/06/12 04:12:31;;;;;;;;;4.00;2.25;;;;;18.95;75.64;102106.22;5098096;27;45219;-76
2022/06/12 04:15:22;;;;;;;;;2.00;1.00;;;;;18.90;75.86;102102.50;5098252;27;45272;-77
2022/06/12 04:17:48;;;;;;;;;3.75;1.00;;;;;18.87;76.10;102098.06;5102015;27;45746;-79
2022/06/12 04:20:20;;;;;;;;;2.00;2.00;;;;;18.86;76.52;102104.16;5102276;27;45220;-78
2022/06/12 04:23:12;;;;;;;;;3.00;2.00;;;;;18.86;76.62;102104.16;5101927;27;45267;-77
2022/06/12 04:25:44;;;;;;;;;3.00;2.00;;;;;18.91;77.04;102097.31;5102759;27;45288;-79
2022/06/12 04:28:35;;;;;;;;;2.00;1.50;;;;;18.88;75.91;102097.22;5097193;27;45283;-76
2022/06/12 04:31:06;;;;;;;;;3.25;2.25;;;;;18.96;76.66;102116.75;5097573;27;45268;-74
2022/06/12 04:33:46;;;;;;;;;2.00;2.00;;;;;18.93;76.35;102119.28;5097733;27;45375;-76
2022/06/12 04:36:15;;;;;;;;;2.00;2.00;;;;;18.86;76.40;102115.53;5096923;27;46353;-76
2022/06/12 04:38:41;;;;;;;;;3.00;2.00;;;;;18.87;77.07;102108.56;5097011;27;45883;-73
2022/06/12 04:41:07;;;;;;;;;4.00;3.00;;;;;18.86;77.22;102112.03;5096940;27;45320;-74
2022/06/12 04:43:34;;;;;;;;;5.50;2.75;;;;;18.88;77.04;102116.47;5097451;27;45362;-76
2022/06/12 04:46:00;;;;;;;;;3.25;2.00;;;;;18.85;76.99;102116.38;5078653;27;46726;-76
2022/06/12 04:48:38;;;;;;;;;1.50;1.00;;;;;18.89;77.41;102120.00;5082419;27;45977;-74
2022/06/12 04:51:07;;;;;;;;;3.25;2.50;;;;;18.83;77.59;102107.59;5081711;27;45423;-74
2022/06/12 04:53:33;;;;;;;;;3.25;1.75;;;;;18.84;77.90;102117.22;5083751;27;45484;-80
2022/06/12 04:56:00;;;;;;;;;1.75;1.00;;;;;18.85;77.70;102118.13;5076887;28;46247;-77
2022/06/12 04:58:26;;;;;;;;;2.50;2.00;;;;;18.84;78.43;102121.59;5079370;28;45466;-78
2022/06/12 05:00:51;;;;;;;;;3.00;2.00;;;;;18.75;78.27;102114.28;5079208;28;45277;-77
2022/06/12 05:03:18;;;;;;;;;4.00;1.25;;;;;18.74;78.73;102099.41;5081465;27;45588;-79
2022/06/12 05:05:47;;;;;;;;;2.00;1.75;;;;;18.81;79.15;102114.50;5082309;28;45421;-81
2022/06/12 05:08:15;;;;;;;;;4.25;3.00;;;;;18.77;79.18;102114.38;5080950;28;45276;-81
2022/06/12 05:10:41;;;;;;;;;6.25;3.00;;;;;18.72;79.54;102101.09;5079989;27;45318;-78
2022/06/12 05:13:08;;;;;;;;;5.50;3.00;;;;;18.70;79.76;102098.41;5079878;27;45474;-80
2022/06/12 05:15:34;;;;;;;;;5.50;3.00;;;;;18.74;79.94;102102.03;5077256;27;45280;-79
2022/06/12 05:18:00;;;;;;;;;1.75;1.00;;;;;18.78;80.56;102103.03;5076360;28;45302;-75
2022/06/12 05:20:29;;;;;;;;;3.00;3.00;;;;;18.81;80.18;102096.16;5077118;28;45341;-80
2022/06/12 05:22:56;;;;;;;;;3.00;3.00;;;;;18.84;80.07;102097.97;5076641;28;45496;-80
2022/06/12 05:25:23;;;;;;;;;5.75;2.75;;;;;18.88;80.21;102105.97;5076263;28;46017;-77
2022/06/12 05:27:51;;;;;;;;;3.00;3.00;;;;;18.80;79.75;102089.13;5076683;27;45733;-80
2022/06/12 05:30:21;;;;;;;;;2.50;2.50;;;;;18.83;80.07;102091.84;5076794;28;45415;-79
2022/06/12 05:32:48;;;;;;;;;6.75;3.25;;;;;18.86;79.53;102097.16;5076998;28;45430;-75
2022/06/12 05:35:15;;;;;;;;;6.50;4.00;;;;;18.90;79.68;102102.50;5076451;28;45243;-75
2022/06/12 05:37:41;;;;;;;;;2.50;2.00;;;;;18.91;79.74;102097.31;5076786;28;45685;-76
2022/06/12 05:40:11;;;;;;;;;3.00;3.00;;;;;18.91;79.56;102097.31;5076424;28;45450;-77
2022/06/12 05:42:39;;;;;;;;;2.25;2.25;;;;;18.95;79.90;102103.59;5076622;28;45424;-78
2022/06/12 05:45:07;;;;;;;;;3.00;3.00;;;;;18.98;79.23;102093.16;5075794;28;45347;-76
2022/06/12 05:47:34;;;;;;;;;4.00;4.00;;;;;18.93;79.52;102087.78;5075608;28;45452;-78
2022/06/12 05:50:00;;;;;;;;;8.00;3.50;;;;;19.00;79.10;102099.38;5078427;28;45418;-77
2022/06/12 05:52:26;;;;;;;;;3.50;3.50;;;;;18.98;79.02;102098.41;5081916;27;45426;-79
2022/06/12 05:54:52;;;;;;;;;3.00;2.00;;;;;19.03;79.72;102116.09;5077430;28;45402;-75
2022/06/12 05:57:18;;;;;;;;;3.00;2.75;;;;;18.99;79.53;102110.72;5057674;28;45771;-75
2022/06/12 05:59:44;;;;;;;;;5.00;4.00;;;;;18.98;79.50;102106.28;5075924;27;45292;-75
2022/06/12 06:02:10;;;;;;;;;2.75;2.75;;;;;19.00;80.03;102110.78;5075317;28;45502;-75
2022/06/12 06:04:36;;;;;;;;;2.00;2.00;;;;;19.00;79.56;102112.50;5075060;28;45995;-75
2022/06/12 06:07:02;;;;;;;;;4.50;3.00;;;;;19.02;78.96;102119.56;5075995;27;45765;-76
2022/06/12 06:09:28;;;;;;;;;4.00;2.00;;;;;19.08;78.88;102116.22;5082996;28;45261;-77
2022/06/12 06:11:54;;;;;;;;;2.50;2.50;;;;;19.13;78.27;102127.78;5084369;28;45323;-78
2022/06/12 06:14:21;;;;;;;;;5.00;5.00;;;;;19.17;77.36;102118.25;5076252;28;45338;-82
2022/06/12 06:16:47;;;;;;;;;3.25;2.00;;;;;19.25;76.34;102118.50;5076113;28;45350;-79
2022/06/12 06:19:14;;;;;;;;;4.00;1.75;;;;;19.30;75.68;102120.41;5076118;28;45389;-79
2022/06/12 06:21:40;;;;;;;;;6.00;3.25;;;;;19.28;75.64;102111.59;5057998;28;45339;-79
2022/06/12 06:24:08;;;;;;;;;8.50;4.00;;;;;19.39;74.92;102122.41;5075629;27;45933;-77
2022/06/12 06:26:34;;;;;;;;;10.00;8.50;;;;;19.47;73.93;102122.63;5078294;28;45818;-76
2022/06/12 06:29:00;;;;;;;;;3.00;2.25;;;;;19.49;73.23;102124.44;5078630;28;45445;-77
2022/06/12 06:31:27;;;;;;;;;3.50;1.50;;;;;19.53;73.06;102124.53;5084101;27;45446;-74
2022/06/12 06:33:54;;;;;;;;;1.75;1.75;;;;;19.57;72.48;102126.44;5067722;28;46368;-76
2022/06/12 06:36:20;;;;;;;;;5.00;4.00;;;;;19.59;72.01;102136.13;5064729;28;45641;-76
2022/06/12 06:38:46;;;;;;;;;7.00;4.00;;;;;19.62;71.35;102136.22;5099101;27;45326;-74
2022/06/12 06:41:14;;;;;;;;;3.00;3.00;;;;;19.61;70.54;102130.91;5100694;27;45361;-75
2022/06/12 06:46:24;;;;;;;;;4.00;3.00;;;;;19.58;70.47;102122.97;5099167;27;45400;-76
2022/06/12 06:48:50;;;;;;;;;3.00;3.00;;;;;19.63;70.74;102124.88;5099214;27;45430;-78
2022/06/12 06:51:16;;;;;;;;;1.25;1.00;;;;;19.72;69.00;102121.59;5098997;27;45540;-77
2022/06/12 06:53:42;;;;;;;;;4.00;3.25;;;;;19.70;69.36;102125.94;5098353;27;45491;-75
2022/06/12 06:56:08;;;;;;;;;4.00;3.00;;;;;19.68;69.07;102135.50;5079174;27;45442;-78
2022/06/12 06:58:35;;;;;;;;;1.00;1.00;;;;;19.66;69.37;102131.94;5080868;27;45337;-79
2022/06/12 07:01:01;;;;;;;;;3.00;3.00;;;;;19.70;69.79;102141.69;5078288;27;45379;-73
2022/06/12 07:03:28;;;;;;;;;5.25;4.25;;;;;19.67;69.48;102136.34;5082264;27;45457;-79
2022/06/12 07:05:54;;;;;;;;;5.00;5.00;;;;;19.63;70.21;102135.38;5090367;27;45685;-74
2022/06/12 07:08:22;;;;;;;;;4.25;4.25;;;;;19.62;70.61;102119.53;5081555;27;45548;-82
2022/06/12 07:10:49;;;;;;;;;4.00;4.00;;;;;19.74;70.51;102132.16;5080158;27;45519;-78
2022/06/12 07:13:15;;;;;;;;;3.50;2.25;;;;;19.75;71.53;102137.44;5060120;28;45579;-83
2022/06/12 07:15:42;;;;;;;;;4.50;3.00;;;;;19.59;72.09;102115.09;5078403;28;45190;-82
2022/06/12 07:18:09;;;;;;;;;6.00;3.75;;;;;19.66;72.81;102134.56;5078555;28;45662;-81
2022/06/12 07:20:39;;;;;;;;;2.75;2.50;;;;;19.72;73.12;102139.97;5060518;28;45572;-85
2022/06/12 07:23:06;;;;;;;;;4.75;4.00;;;;;19.71;72.55;102113.66;5095856;27;45450;-82
2022/06/12 07:25:39;;;;;;;;;8.75;4.00;;;;;19.84;72.67;102142.09;5098917;27;45422;-82
2022/06/12 07:28:05;;;;;;;;;3.50;3.50;;;;;19.82;72.91;102132.34;5095994;27;45319;-86
2022/06/12 07:30:31;;;;;;;;;3.50;2.00;;;;;19.91;72.22;102138.78;5087373;27;45375;-89
2022/06/12 07:32:57;;;;;;;;;5.75;5.00;;;;;19.92;72.33;102139.72;5085610;27;46318;-82
2022/06/12 07:35:22;;;;;;;;;2.00;2.00;;;;;19.74;72.44;102106.75;5098144;27;45243;-88
2022/06/12 07:37:49;;;;;;;;;3.75;2.75;;;;;19.81;71.98;102120.97;5088662;27;45716;-80
2022/06/12 07:40:22;;;;;;;;;4.00;3.00;;;;;19.92;71.87;102145.84;5093738;27;45541;-83
2022/06/12 07:42:48;;;;;;;;;2.00;2.00;;;;;19.88;71.50;102137.81;5062104;28;47382;-88
2022/06/12 07:45:15;;;;;;;;;3.00;3.00;;;;;19.94;71.89;102145.88;5064315;28;45954;-76
2022/06/12 07:47:41;;;;;;;;;3.00;3.00;;;;;19.97;72.49;102145.97;5060931;27;45367;-78
2022/06/12 07:50:08;;;;;;;;;4.50;3.50;;;;;20.02;72.20;102149.63;5068818;27;45497;-77
2022/06/12 07:52:36;;;;;;;;;3.00;3.00;;;;;20.01;71.55;102137.31;5074028;27;45507;-79
2022/06/12 07:55:02;;;;;;;;;4.00;3.00;;;;;19.95;71.82;102134.50;5058387;28;45714;-79
2022/06/12 07:57:28;;;;;;;;;3.00;2.00;;;;;19.95;72.34;102134.50;5088138;27;45199;-84
2022/06/12 07:59:53;;;;;;;;;4.25;2.25;;;;;19.92;72.35;102131.81;5098260;27;45460;-77
2022/06/12 08:02:19;;;;;;;;;2.25;2.25;;;;;20.02;72.83;102143.47;5097254;27;46074;-78
2022/06/12 08:04:45;;;;;;;;;1.00;1.00;;;;;20.05;71.78;102140.91;5087916;27;45250;-78
2022/06/12 08:07:10;;;;;;;;;3.75;2.00;;;;;20.01;71.16;102126.81;5077624;27;45480;-77
2022/06/12 08:09:36;;;;;;;;;3.75;3.00;;;;;20.05;69.76;102140.91;5088450;27;45337;-81
2022/06/12 08:12:02;;;;;;;;;4.00;2.00;;;;;20.13;69.58;102146.38;5070162;28;47153;-78
2022/06/12 08:14:28;;;;;;;;;4.75;3.00;;;;;20.12;69.94;102147.22;5066087;28;45511;-78
2022/06/12 08:16:56;;;;;;;;;2.00;2.00;;;;;20.17;69.06;102140.34;5065229;27;45383;-79
2022/06/12 08:22:08;;;;;;;;;2.00;2.00;;;;;20.23;67.89;102116.84;5078949;28;45645;-76
2022/06/12 08:24:35;;;;;;;;;2.50;1.25;;;;;20.37;66.48;102131.22;5077072;27;45474;-77
2022/06/12 08:27:01;;;;;;;;;6.00;3.00;;;;;20.44;65.58;102139.28;5063398;28;45510;-77
2022/06/12 08:29:28;;;;;;;;;2.50;2.50;;;;;20.45;63.59;102125.28;5091114;27;45373;-76
2022/06/12 08:31:58;;;;;;;;;1.50;1.25;;;;;20.46;64.35;102130.56;5098726;27;45642;-78
2022/06/12 08:34:30;;;;;;;;;1.00;1.00;;;;;20.50;64.10;102142.06;5095872;27;45499;-82
2022/06/12 08:37:01;;;;;;;;;3.00;2.00;;;;;20.39;64.28;102108.47;5079752;27;45231;-77
2022/06/12 08:39:28;;;;;;;;;2.50;1.50;;;;;20.47;63.19;102120.94;5078473;27;45432;-78
2022/06/12 08:42:11;;;;;;;;;2.00;2.00;;;;;20.51;61.88;102123.72;5081323;27;46061;-78
2022/06/12 08:45:01;;;;;;;;;3.25;1.75;;;;;20.54;61.40;102120.25;5058023;27;45841;-83
2022/06/12 08:47:57;;;;;;;;;0.25;0.00;;;;;20.53;60.53;102121.97;5055132;28;45396;-76
2022/06/12 08:50:38;;;;;;;;;3.25;2.00;;;;;20.54;61.72;102102.72;5053907;28;45518;-77
2022/06/12 08:53:14;;;;;;;;;3.00;3.00;;;;;20.56;63.00;102094.88;5054931;28;46059;-77
2022/06/12 08:55:53;;;;;;;;;2.00;2.00;;;;;20.62;62.83;102110.78;5054357;28;45524;-75
2022/06/12 08:58:31;;;;;;;;;6.00;3.00;;;;;20.67;62.88;102117.06;5055455;28;45497;-75
2022/06/12 09:00:59;;;;;;;;;4.75;2.50;;;;;20.70;63.03;102106.59;5055225;28;45438;-75
2022/06/12 09:03:31;;;;;;;;;2.25;2.25;;;;;20.70;63.42;102105.72;5056144;28;45243;-76
2022/06/12 09:06:14;;;;;;;;;4.50;3.00;;;;;20.71;62.66;102110.13;5055674;28;45473;-77
2022/06/12 09:08:49;;;;;;;;;2.75;2.00;;;;;20.69;62.94;102106.56;5056101;28;45280;-76
2022/06/12 09:11:36;;;;;;;;;6.00;4.00;;;;;20.68;62.74;102108.28;5055935;28;45438;-75
2022/06/12 09:14:43;;;;;;;;;1.00;1.00;;;;;20.69;61.88;102109.19;5054969;28;46288;-77
2022/06/12 09:17:41;;;;;;;;;0.00;0.00;;;;;20.67;60.25;102109.19;5037916;28;45362;-79
2022/06/12 09:20:29;;;;;;;;;4.00;2.00;;;;;20.61;60.88;102101.13;5055972;28;45340;-77
2022/06/12 09:23:01;;;;;;;;;0.25;0.25;;;;;20.65;59.88;102108.25;5056331;28;45519;-80
2022/06/12 09:25:50;;;;;;;;;2.00;2.00;;;;;20.56;59.12;102089.59;5037697;28;45340;-79
2022/06/12 09:28:34;;;;;;;;;3.25;1.50;;;;;20.65;58.92;102108.25;5055410;28;45776;-77
2022/06/12 09:31:13;;;;;;;;;3.25;2.25;;;;;20.56;58.93;102079.97;5055740;28;45355;-80
2022/06/12 09:34:14;;;;;;;;;1.75;1.75;;;;;20.70;58.56;102098.69;5038373;28;45206;-78
2022/06/12 09:40:29;;;;;;;;;3.25;2.00;;;;;20.83;58.22;102101.66;5076000;27;45322;-80
2022/06/12 09:42:59;;;;;;;;;3.00;2.00;;;;;20.89;58.55;102104.44;5076307;27;45247;-79
2022/06/12 09:45:35;;;;;;;;;1.00;1.00;;;;;20.91;57.61;102100.06;5076524;27;45446;-80
2022/06/12 09:48:29;;;;;;;;;2.25;2.00;;;;;20.96;58.73;102106.34;5075498;27;46628;-76
2022/06/12 09:51:10;;;;;;;;;2.00;1.00;;;;;20.85;57.49;102074.50;5057703;28;45508;-77
2022/06/12 09:54:05;;;;;;;;;2.50;1.00;;;;;20.98;57.60;102103.75;5057736;28;45219;-76
2022/06/12 09:57:01;;;;;;;;;3.50;1.00;;;;;20.84;58.68;102077.97;5044191;28;45479;-80
2022/06/12 09:59:30;;;;;;;;;2.00;1.25;;;;;21.03;57.55;102103.00;5037508;28;46052;-75
2022/06/12 10:02:00;;;;;;;;;1.00;1.00;;;;;20.94;57.28;102088.75;5079198;27;45357;-77
2022/06/12 10:04:37;;;;;;;;;1.00;1.00;;;;;21.10;56.74;102109.28;5078457;27;46816;-76
2022/06/12 10:07:10;;;;;;;;;1.00;1.00;;;;;21.11;56.84;102115.47;5078810;28;45814;-76
2022/06/12 10:09:42;;;;;;;;;1.25;1.25;;;;;21.10;54.84;102109.28;5079091;27;46618;-76
2022/06/12 10:12:15;;;;;;;;;3.00;1.75;;;;;21.12;54.70;102106.69;5077753;28;46484;-75
2022/06/12 10:14:53;;;;;;;;;1.50;1.25;;;;;21.13;55.09;102101.47;5078498;27;45347;-76
2022/06/12 10:17:36;;;;;;;;;3.00;2.00;;;;;21.10;58.70;102098.75;5060886;28;45287;-75
2022/06/12 10:20:26;;;;;;;;;4.00;3.00;;;;;21.15;60.75;102097.13;5078347;27;45299;-78
2022/06/12 10:22:54;;;;;;;;;4.50;3.00;;;;;21.18;62.25;102098.94;5060109;28;45582;-76
2022/06/12 10:25:33;;;;;;;;;5.00;3.50;;;;;21.24;62.67;102098.16;5078589;28;45384;-74
2022/06/12 10:28:13;;;;;;;;;3.50;3.00;;;;;21.27;63.65;102096.47;5078492;28;45381;-74
2022/06/12 10:30:56;;;;;;;;;3.25;3.25;;;;;21.27;64.12;102090.34;5078546;27;46189;-74
2022/06/12 10:33:22;;;;;;;;;3.00;3.00;;;;;21.29;63.87;102092.13;5078401;27;45442;-74
2022/06/12 10:35:57;;;;;;;;;5.00;4.00;;;;;21.27;63.95;102090.34;5078433;28;45381;-74
2022/06/12 10:38:27;;;;;;;;;3.25;3.25;;;;;21.23;63.37;102075.31;5063291;28;45327;-77
2022/06/12 10:41:00;;;;;;;;;4.00;4.00;;;;;21.30;62.69;102086.00;5080458;27;46034;-76
2022/06/12 10:43:37;;;;;;;;;6.00;5.00;;;;;21.32;62.85;102076.41;5079542;27;45870;-76
2022/06/12 10:46:16;;;;;;;;;4.75;4.25;;;;;21.38;63.03;102069.47;5078709;28;45413;-77
2022/06/12 10:48:54;;;;;;;;;6.25;3.25;;;;;21.41;61.47;102067.78;5079361;28;45256;-76
2022/06/12 10:51:24;;;;;;;;;5.00;3.25;;;;;21.41;57.88;102062.50;5077965;28;46022;-76
2022/06/12 10:53:59;;;;;;;;;3.50;2.25;;;;;21.43;57.74;102049.38;5060158;27;45355;-77
2022/06/12 10:56:50;;;;;;;;;3.25;3.00;;;;;21.48;60.56;102069.69;5060099;28;45398;-75
2022/06/12 10:59:25;;;;;;;;;4.50;2.50;;;;;21.48;57.28;102061.78;5060180;28;45562;-75
2022/06/12 11:02:21;;;;;;;;;5.50;3.00;;;;;21.51;60.51;102066.22;5078116;28;45525;-78
2022/06/12 11:05:12;;;;;;;;;6.00;3.75;;;;;21.55;60.40;102054.00;5077769;27;45343;-75
2022/06/12 11:07:58;;;;;;;;;6.50;5.50;;;;;21.60;59.80;102047.09;5060184;28;45344;-77
2022/06/12 11:10:24;;;;;;;;;3.00;3.00;;;;;21.65;61.53;102056.84;5078058;27;45919;-78
2022/06/12 11:13:15;;;;;;;;;3.00;3.00;;;;;21.71;60.25;102055.19;5077783;27;45507;-77
2022/06/12 11:16:01;;;;;;;;;3.00;3.00;;;;;21.61;60.78;102030.41;5077957;28;45777;-75
2022/06/12 11:18:39;;;;;;;;;3.00;3.00;;;;;21.73;59.79;102038.53;5077489;28;45260;-76
2022/06/12 11:21:17;;;;;;;;;3.00;3.00;;;;;21.79;52.76;102027.22;5077613;27;45996;-75
2022/06/12 11:24:10;;;;;;;;;2.00;2.00;;;;;21.89;51.94;102037.06;5078031;27;45696;-76
2022/06/12 11:27:00;;;;;;;;;7.00;5.50;;;;;21.96;54.85;102027.53;5078764;28;45871;-76
2022/06/12 11:29:30;;;;;;;;;3.00;3.00;;;;;22.03;54.55;102018.84;5081175;27;45630;-76
2022/06/12 11:32:12;;;;;;;;;4.00;4.00;;;;;22.05;53.93;102003.06;5081503;28;45364;-77
2022/06/12 11:35:15;;;;;;;;;3.75;3.75;;;;;22.18;54.01;102012.97;5078895;28;45351;-81
2022/06/12 11:37:55;;;;;;;;;4.00;4.00;;;;;22.25;52.95;102017.44;5078816;28;45339;-74
2022/06/12 11:40:21;;;;;;;;;5.00;3.50;;;;;22.30;52.62;102004.34;5078170;27;45417;-77
2022/06/12 11:43:19;;;;;;;;;4.25;2.00;;;;;22.37;53.38;102008.81;5078108;27;45410;-75
2022/06/12 11:46:00;;;;;;;;;2.00;2.00;;;;;22.39;52.00;101996.56;5056131;28;45424;-77
2022/06/12 11:48:53;;;;;;;;;3.00;3.00;;;;;22.45;49.98;101993.16;5077705;28;45382;-79
2022/06/12 11:51:37;;;;;;;;;3.00;3.00;;;;;22.47;49.75;101986.16;5077709;27;45260;-79
2022/06/12 11:54:18;;;;;;;;;9.75;6.00;;;;;22.54;49.81;101987.13;5077851;27;45209;-77
2022/06/12 11:56:56;;;;;;;;;4.25;4.25;;;;;22.65;50.17;101982.88;5077963;27;46123;-79
2022/06/12 11:59:45;;;;;;;;;3.75;3.75;;;;;22.70;50.78;101986.44;5077822;28;45319;-79
2022/06/12 12:02:39;;;;;;;;;5.00;3.75;;;;;22.76;50.72;101984.78;5077360;28;45447;-78
2022/06/12 12:05:30;;;;;;;;;3.25;2.00;;;;;22.78;50.85;101986.56;5077717;27;45271;-77
2022/06/12 12:08:17;;;;;;;;;3.00;2.50;;;;;22.83;50.49;101989.25;5075864;28;45792;-73
2022/06/12 12:10:48;;;;;;;;;2.50;2.50;;;;;22.83;49.24;101979.59;5077901;28;45343;-75
2022/06/12 12:13:29;;;;;;;;;5.75;4.25;;;;;22.87;48.38;101973.47;5075954;27;45366;-74
2022/06/12 12:16:00;;;;;;;;;3.25;2.00;;;;;22.96;47.49;101966.50;5077307;27;45295;-76
2022/06/12 12:18:40;;;;;;;;;3.00;2.00;;;;;23.02;46.59;101978.03;5060207;28;45474;-77